sensor_id;sensor_type;location;lat;lon;timestamp;temperature;humidity
42097;DHT22;27754;45.414;11.084;2022-07-22T00:01:24;26.80;51.80
42097;DHT22;27754;45.414;11.084;2022-07-22T00:03:51;26.70;51.90
42097;DHT22;27754;45.414;11.084;2022-07-22T00:06:18;26.50;52.20
42097;DHT22;27754;45.414;11.084;2022-07-22T00:08:45;26.50;52.50
42097;DHT22;27754;45.414;11.084;2022-07-22T00:11:12;26.50;52.50
42097;DHT22;27754;45.414;11.084;2022-07-22T00:13:39;26.50;52.70
42097;DHT22;27754;45.414;11.084;2022-07-22T00:16:06;26.40;52.90
42097;DHT22;27754;45.414;11.084;2022-07-22T00:18:33;26.40;52.90
42097;DHT22;27754;45.414;11.084;2022-07-22T00:21:00;26.40;52.80
42097;DHT22;27754;45.414;11.084;2022-07-22T00:23:27;26.40;52.60
42097;DHT22;27754;45.414;11.084;2022-07-22T00:25:54;26.40;52.80
42097;DHT22;27754;45.414;11.084;2022-07-22T00:28:20;26.60;51.80
42097;DHT22;27754;45.414;11.084;2022-07-22T00:30:47;26.60;51.50
42097;DHT22;27754;45.414;11.084;2022-07-22T00:33:20;26.70;51.00
42097;DHT22;27754;45.414;11.084;2022-07-22T00:35:49;26.80;50.90
42097;DHT22;27754;45.414;11.084;2022-07-22T00:38:16;26.80;50.70
42097;DHT22;27754;45.414;11.084;2022-07-22T00:40:43;26.80;50.90
42097;DHT22;27754;45.414;11.084;2022-07-22T00:43:10;26.70;51.90
42097;DHT22;27754;45.414;11.084;2022-07-22T00:45:37;26.60;51.70
42097;DHT22;27754;45.414;11.084;2022-07-22T00:48:04;26.50;52.40
42097;DHT22;27754;45.414;11.084;2022-07-22T00:50:32;26.30;52.20
42097;DHT22;27754;45.414;11.084;2022-07-22T00:52:59;26.40;52.30
42097;DHT22;27754;45.414;11.084;2022-07-22T00:55:26;26.40;52.50
42097;DHT22;27754;45.414;11.084;2022-07-22T00:57:53;26.40;52.70
42097;DHT22;27754;45.414;11.084;2022-07-22T01:00:21;26.30;53.40
42097;DHT22;27754;45.414;11.084;2022-07-22T01:02:50;26.30;53.60
42097;DHT22;27754;45.414;11.084;2022-07-22T01:05:17;26.30;54.40
42097;DHT22;27754;45.414;11.084;2022-07-22T01:07:44;26.20;54.80
42097;DHT22;27754;45.414;11.084;2022-07-22T01:10:12;25.80;55.60
42097;DHT22;27754;45.414;11.084;2022-07-22T01:12:39;25.30;57.10
42097;DHT22;27754;45.414;11.084;2022-07-22T01:15:06;25.30;57.70
42097;DHT22;27754;45.414;11.084;2022-07-22T01:17:34;25.30;57.40
42097;DHT22;27754;45.414;11.084;2022-07-22T01:20:03;25.50;58.20
42097;DHT22;27754;45.414;11.084;2022-07-22T01:22:30;25.50;58.40
42097;DHT22;27754;45.414;11.084;2022-07-22T01:24:59;25.60;58.40
42097;DHT22;27754;45.414;11.084;2022-07-22T01:27:26;25.70;57.80
42097;DHT22;27754;45.414;11.084;2022-07-22T01:29:54;25.80;57.10
42097;DHT22;27754;45.414;11.084;2022-07-22T01:32:21;25.80;56.70
42097;DHT22;27754;45.414;11.084;2022-07-22T01:34:48;25.80;56.50
42097;DHT22;27754;45.414;11.084;2022-07-22T01:37:15;25.70;56.40
42097;DHT22;27754;45.414;11.084;2022-07-22T01:39:42;25.60;56.60
42097;DHT22;27754;45.414;11.084;2022-07-22T01:42:09;25.70;56.60
42097;DHT22;27754;45.414;11.084;2022-07-22T01:44:36;25.30;57.30
42097;DHT22;27754;45.414;11.084;2022-07-22T01:47:03;25.10;58.40
42097;DHT22;27754;45.414;11.084;2022-07-22T01:49:30;25.00;59.00
42097;DHT22;27754;45.414;11.084;2022-07-22T01:51:57;24.90;58.90
42097;DHT22;27754;45.414;11.084;2022-07-22T01:54:24;24.90;59.00
42097;DHT22;27754;45.414;11.084;2022-07-22T01:56:51;24.80;59.40
42097;DHT22;27754;45.414;11.084;2022-07-22T01:59:18;24.80;60.30
42097;DHT22;27754;45.414;11.084;2022-07-22T02:01:46;24.70;60.90
42097;DHT22;27754;45.414;11.084;2022-07-22T02:04:13;24.60;61.50
42097;DHT22;27754;45.414;11.084;2022-07-22T02:06:41;24.50;61.70
42097;DHT22;27754;45.414;11.084;2022-07-22T02:09:09;24.60;61.30
42097;DHT22;27754;45.414;11.084;2022-07-22T02:11:40;24.60;61.60
42097;DHT22;27754;45.414;11.084;2022-07-22T02:14:09;24.60;61.60
42097;DHT22;27754;45.414;11.084;2022-07-22T02:16:37;24.40;62.50
42097;DHT22;27754;45.414;11.084;2022-07-22T02:19:04;24.10;63.40
42097;DHT22;27754;45.414;11.084;2022-07-22T02:21:31;24.10;63.80
42097;DHT22;27754;45.414;11.084;2022-07-22T02:23:59;24.10;63.10
42097;DHT22;27754;45.414;11.084;2022-07-22T02:26:26;24.10;63.70
42097;DHT22;27754;45.414;11.084;2022-07-22T02:28:52;24.30;63.30
42097;DHT22;27754;45.414;11.084;2022-07-22T02:31:21;24.30;63.40
42097;DHT22;27754;45.414;11.084;2022-07-22T02:33:49;24.40;63.30
42097;DHT22;27754;45.414;11.084;2022-07-22T02:36:16;24.30;63.90
42097;DHT22;27754;45.414;11.084;2022-07-22T02:38:43;24.20;64.10
42097;DHT22;27754;45.414;11.084;2022-07-22T02:41:10;24.20;64.10
42097;DHT22;27754;45.414;11.084;2022-07-22T02:43:43;24.30;63.80
42097;DHT22;27754;45.414;11.084;2022-07-22T02:46:11;24.40;63.70
42097;DHT22;27754;45.414;11.084;2022-07-22T02:48:38;24.30;63.60
42097;DHT22;27754;45.414;11.084;2022-07-22T02:51:07;24.30;63.70
42097;DHT22;27754;45.414;11.084;2022-07-22T02:53:34;24.20;63.40
42097;DHT22;27754;45.414;11.084;2022-07-22T02:56:01;24.20;63.50
42097;DHT22;27754;45.414;11.084;2022-07-22T02:58:29;24.30;63.50
42097;DHT22;27754;45.414;11.084;2022-07-22T03:00:56;24.30;62.80
42097;DHT22;27754;45.414;11.084;2022-07-22T03:03:24;24.20;62.80
42097;DHT22;27754;45.414;11.084;2022-07-22T03:05:51;24.10;63.30
42097;DHT22;27754;45.414;11.084;2022-07-22T03:08:24;23.80;64.20
42097;DHT22;27754;45.414;11.084;2022-07-22T03:10:52;23.60;64.90
42097;DHT22;27754;45.414;11.084;2022-07-22T03:13:20;23.60;65.10
42097;DHT22;27754;45.414;11.084;2022-07-22T03:15:47;23.70;65.10
42097;DHT22;27754;45.414;11.084;2022-07-22T03:18:14;23.70;65.30
42097;DHT22;27754;45.414;11.084;2022-07-22T03:20:41;23.70;65.20
42097;DHT22;27754;45.414;11.084;2022-07-22T03:23:08;23.70;65.00
42097;DHT22;27754;45.414;11.084;2022-07-22T03:25:37;23.60;65.30
42097;DHT22;27754;45.414;11.084;2022-07-22T03:28:05;23.70;65.10
42097;DHT22;27754;45.414;11.084;2022-07-22T03:30:32;23.80;64.80
42097;DHT22;27754;45.414;11.084;2022-07-22T03:32:59;23.80;64.70
42097;DHT22;27754;45.414;11.084;2022-07-22T03:35:30;23.60;65.20
42097;DHT22;27754;45.414;11.084;2022-07-22T03:37:57;23.60;65.20
42097;DHT22;27754;45.414;11.084;2022-07-22T03:40:26;23.60;65.70
42097;DHT22;27754;45.414;11.084;2022-07-22T03:42:54;23.50;66.00
42097;DHT22;27754;45.414;11.084;2022-07-22T03:45:21;23.50;66.30
42097;DHT22;27754;45.414;11.084;2022-07-22T03:47:48;23.50;66.50
42097;DHT22;27754;45.414;11.084;2022-07-22T03:50:16;23.60;65.80
42097;DHT22;27754;45.414;11.084;2022-07-22T03:52:45;23.60;65.40
42097;DHT22;27754;45.414;11.084;2022-07-22T03:55:12;23.80;64.90
42097;DHT22;27754;45.414;11.084;2022-07-22T03:57:41;23.80;64.60
42097;DHT22;27754;45.414;11.084;2022-07-22T04:00:16;23.80;64.60
42097;DHT22;27754;45.414;11.084;2022-07-22T04:02:45;23.90;64.50
42097;DHT22;27754;45.414;11.084;2022-07-22T04:05:28;24.00;64.50
42097;DHT22;27754;45.414;11.084;2022-07-22T04:07:55;24.10;63.60
42097;DHT22;27754;45.414;11.084;2022-07-22T04:10:22;24.20;62.80
42097;DHT22;27754;45.414;11.084;2022-07-22T04:12:49;24.30;62.40
42097;DHT22;27754;45.414;11.084;2022-07-22T04:15:30;24.40;62.20
42097;DHT22;27754;45.414;11.084;2022-07-22T04:17:58;24.30;62.50
42097;DHT22;27754;45.414;11.084;2022-07-22T04:20:25;24.30;62.80
42097;DHT22;27754;45.414;11.084;2022-07-22T04:23:22;24.40;62.70
42097;DHT22;27754;45.414;11.084;2022-07-22T04:25:57;24.50;62.40
42097;DHT22;27754;45.414;11.084;2022-07-22T04:28:24;24.60;62.10
42097;DHT22;27754;45.414;11.084;2022-07-22T04:30:50;24.80;61.70
42097;DHT22;27754;45.414;11.084;2022-07-22T04:33:17;24.90;61.30
42097;DHT22;27754;45.414;11.084;2022-07-22T04:35:44;25.20;60.80
42097;DHT22;27754;45.414;11.084;2022-07-22T04:38:17;25.40;59.90
42097;DHT22;27754;45.414;11.084;2022-07-22T04:40:55;25.70;59.40
42097;DHT22;27754;45.414;11.084;2022-07-22T04:43:23;25.90;59.00
42097;DHT22;27754;45.414;11.084;2022-07-22T04:45:50;25.90;59.00
42097;DHT22;27754;45.414;11.084;2022-07-22T04:48:17;25.80;59.60
42097;DHT22;27754;45.414;11.084;2022-07-22T04:50:45;25.60;60.00
42097;DHT22;27754;45.414;11.084;2022-07-22T04:53:12;25.50;59.90
42097;DHT22;27754;45.414;11.084;2022-07-22T04:55:40;25.50;60.20
42097;DHT22;27754;45.414;11.084;2022-07-22T04:58:08;25.60;59.90
42097;DHT22;27754;45.414;11.084;2022-07-22T05:00:44;25.80;59.70
42097;DHT22;27754;45.414;11.084;2022-07-22T05:03:10;25.90;59.20
42097;DHT22;27754;45.414;11.084;2022-07-22T05:05:40;26.30;58.50
42097;DHT22;27754;45.414;11.084;2022-07-22T05:08:07;26.50;57.90
42097;DHT22;27754;45.414;11.084;2022-07-22T05:10:35;26.60;57.50
42097;DHT22;27754;45.414;11.084;2022-07-22T05:13:03;26.80;57.10
42097;DHT22;27754;45.414;11.084;2022-07-22T05:15:33;27.10;56.30
42097;DHT22;27754;45.414;11.084;2022-07-22T05:18:00;27.40;56.00
42097;DHT22;27754;45.414;11.084;2022-07-22T05:20:30;27.80;55.00
42097;DHT22;27754;45.414;11.084;2022-07-22T05:22:57;28.20;53.70
42097;DHT22;27754;45.414;11.084;2022-07-22T05:25:28;28.50;52.80
42097;DHT22;27754;45.414;11.084;2022-07-22T05:27:55;28.70;52.40
42097;DHT22;27754;45.414;11.084;2022-07-22T05:30:38;28.90;51.90
42097;DHT22;27754;45.414;11.084;2022-07-22T05:33:06;29.00;51.30
42097;DHT22;27754;45.414;11.084;2022-07-22T05:35:54;29.10;51.40
42097;DHT22;27754;45.414;11.084;2022-07-22T05:38:21;29.30;51.40
42097;DHT22;27754;45.414;11.084;2022-07-22T05:40:48;29.30;51.00
42097;DHT22;27754;45.414;11.084;2022-07-22T05:43:15;29.40;50.90
42097;DHT22;27754;45.414;11.084;2022-07-22T05:45:42;29.50;50.50
42097;DHT22;27754;45.414;11.084;2022-07-22T05:48:10;29.60;51.10
42097;DHT22;27754;45.414;11.084;2022-07-22T05:50:37;29.60;51.70
42097;DHT22;27754;45.414;11.084;2022-07-22T05:53:04;29.90;50.70
42097;DHT22;27754;45.414;11.084;2022-07-22T05:55:32;29.90;50.90
42097;DHT22;27754;45.414;11.084;2022-07-22T05:57:59;30.00;50.90
42097;DHT22;27754;45.414;11.084;2022-07-22T06:00:27;30.10;51.20
42097;DHT22;27754;45.414;11.084;2022-07-22T06:02:55;30.20;50.40
42097;DHT22;27754;45.414;11.084;2022-07-22T06:05:22;30.30;50.10
42097;DHT22;27754;45.414;11.084;2022-07-22T06:08:10;30.30;50.70
42097;DHT22;27754;45.414;11.084;2022-07-22T06:10:49;30.50;49.90
42097;DHT22;27754;45.414;11.084;2022-07-22T06:13:17;30.70;49.00
42097;DHT22;27754;45.414;11.084;2022-07-22T06:15:44;30.80;47.70
42097;DHT22;27754;45.414;11.084;2022-07-22T06:18:11;30.90;48.20
42097;DHT22;27754;45.414;11.084;2022-07-22T06:20:39;30.90;48.10
42097;DHT22;27754;45.414;11.084;2022-07-22T06:23:05;31.00;47.20
42097;DHT22;27754;45.414;11.084;2022-07-22T06:25:33;31.30;46.90
42097;DHT22;27754;45.414;11.084;2022-07-22T06:28:39;31.30;47.20
42097;DHT22;27754;45.414;11.084;2022-07-22T06:31:06;31.70;46.50
42097;DHT22;27754;45.414;11.084;2022-07-22T06:33:33;31.80;46.60
42097;DHT22;27754;45.414;11.084;2022-07-22T06:36:01;31.80;46.40
42097;DHT22;27754;45.414;11.084;2022-07-22T06:38:30;31.80;46.00
42097;DHT22;27754;45.414;11.084;2022-07-22T06:41:25;31.90;45.50
42097;DHT22;27754;45.414;11.084;2022-07-22T06:44:04;32.20;45.70
42097;DHT22;27754;45.414;11.084;2022-07-22T06:47:00;32.40;45.10
42097;DHT22;27754;45.414;11.084;2022-07-22T06:49:27;32.50;44.50
42097;DHT22;27754;45.414;11.084;2022-07-22T06:51:54;32.70;43.50
42097;DHT22;27754;45.414;11.084;2022-07-22T06:54:22;32.60;44.20
42097;DHT22;27754;45.414;11.084;2022-07-22T06:56:51;32.30;44.10
42097;DHT22;27754;45.414;11.084;2022-07-22T06:59:24;32.00;44.80
42097;DHT22;27754;45.414;11.084;2022-07-22T07:01:52;32.00;44.40
42097;DHT22;27754;45.414;11.084;2022-07-22T07:04:19;32.20;44.20
42097;DHT22;27754;45.414;11.084;2022-07-22T07:06:48;32.30;43.80
42097;DHT22;27754;45.414;11.084;2022-07-22T07:09:24;32.40;43.20
42097;DHT22;27754;45.414;11.084;2022-07-22T07:12:14;32.60;43.50
42097;DHT22;27754;45.414;11.084;2022-07-22T07:15:15;32.70;43.30
42097;DHT22;27754;45.414;11.084;2022-07-22T07:17:56;32.90;41.90
42097;DHT22;27754;45.414;11.084;2022-07-22T07:20:24;33.10;41.60
42097;DHT22;27754;45.414;11.084;2022-07-22T07:22:52;33.10;41.30
42097;DHT22;27754;45.414;11.084;2022-07-22T07:25:20;33.00;41.40
42097;DHT22;27754;45.414;11.084;2022-07-22T07:27:52;33.30;40.90
42097;DHT22;27754;45.414;11.084;2022-07-22T07:30:34;33.40;40.90
42097;DHT22;27754;45.414;11.084;2022-07-22T07:33:01;33.60;41.10
42097;DHT22;27754;45.414;11.084;2022-07-22T07:35:29;33.80;40.90
42097;DHT22;27754;45.414;11.084;2022-07-22T07:37:57;34.20;39.90
42097;DHT22;27754;45.414;11.084;2022-07-22T07:40:24;34.40;40.00
42097;DHT22;27754;45.414;11.084;2022-07-22T07:42:52;34.60;40.60
42097;DHT22;27754;45.414;11.084;2022-07-22T07:45:29;34.50;41.20
42097;DHT22;27754;45.414;11.084;2022-07-22T07:47:56;34.30;41.40
42097;DHT22;27754;45.414;11.084;2022-07-22T07:50:22;34.30;41.50
42097;DHT22;27754;45.414;11.084;2022-07-22T07:52:49;34.30;41.80
42097;DHT22;27754;45.414;11.084;2022-07-22T07:55:20;34.30;41.80
42097;DHT22;27754;45.414;11.084;2022-07-22T07:57:47;34.40;41.30
42097;DHT22;27754;45.414;11.084;2022-07-22T08:00:21;34.30;41.20
42097;DHT22;27754;45.414;11.084;2022-07-22T08:02:49;34.10;41.30
42097;DHT22;27754;45.414;11.084;2022-07-22T08:05:17;34.70;41.50
42097;DHT22;27754;45.414;11.084;2022-07-22T08:07:47;35.00;40.80
42097;DHT22;27754;45.414;11.084;2022-07-22T08:10:16;35.30;41.10
42097;DHT22;27754;45.414;11.084;2022-07-22T08:13:14;35.40;41.40
42097;DHT22;27754;45.414;11.084;2022-07-22T08:15:59;34.90;41.90
42097;DHT22;27754;45.414;11.084;2022-07-22T08:18:27;34.70;40.40
42097;DHT22;27754;45.414;11.084;2022-07-22T08:20:54;34.50;39.80
42097;DHT22;27754;45.414;11.084;2022-07-22T08:23:34;34.40;40.20
42097;DHT22;27754;45.414;11.084;2022-07-22T08:26:01;34.50;40.80
42097;DHT22;27754;45.414;11.084;2022-07-22T08:28:28;34.60;38.50
42097;DHT22;27754;45.414;11.084;2022-07-22T08:30:56;34.00;40.30
42097;DHT22;27754;45.414;11.084;2022-07-22T08:33:23;34.40;40.20
42097;DHT22;27754;45.414;11.084;2022-07-22T08:35:49;34.60;37.90
42097;DHT22;27754;45.414;11.084;2022-07-22T08:38:17;34.70;35.90
42097;DHT22;27754;45.414;11.084;2022-07-22T08:40:46;34.50;35.40
42097;DHT22;27754;45.414;11.084;2022-07-22T08:43:13;34.30;37.40
42097;DHT22;27754;45.414;11.084;2022-07-22T08:45:41;34.30;38.00
42097;DHT22;27754;45.414;11.084;2022-07-22T08:48:08;34.00;38.90
42097;DHT22;27754;45.414;11.084;2022-07-22T08:50:50;34.30;37.20
42097;DHT22;27754;45.414;11.084;2022-07-22T08:53:24;34.30;38.60
42097;DHT22;27754;45.414;11.084;2022-07-22T08:55:54;34.30;40.80
42097;DHT22;27754;45.414;11.084;2022-07-22T08:58:21;34.50;40.30
42097;DHT22;27754;45.414;11.084;2022-07-22T09:01:05;34.60;40.30
42097;DHT22;27754;45.414;11.084;2022-07-22T09:03:32;34.80;40.30
42097;DHT22;27754;45.414;11.084;2022-07-22T09:06:00;34.80;38.40
42097;DHT22;27754;45.414;11.084;2022-07-22T09:08:27;34.70;40.50
42097;DHT22;27754;45.414;11.084;2022-07-22T09:10:58;34.90;40.80
42097;DHT22;27754;45.414;11.084;2022-07-22T09:13:43;35.10;39.90
42097;DHT22;27754;45.414;11.084;2022-07-22T09:16:44;35.30;39.70
42097;DHT22;27754;45.414;11.084;2022-07-22T09:19:33;35.40;40.20
42097;DHT22;27754;45.414;11.084;2022-07-22T09:25:25;35.30;40.50
42097;DHT22;27754;45.414;11.084;2022-07-22T09:28:15;35.00;39.70
42097;DHT22;27754;45.414;11.084;2022-07-22T09:31:23;35.00;40.30
42097;DHT22;27754;45.414;11.084;2022-07-22T09:33:58;35.00;40.00
42097;DHT22;27754;45.414;11.084;2022-07-22T09:36:27;35.10;41.50
42097;DHT22;27754;45.414;11.084;2022-07-22T09:38:55;35.20;39.70
42097;DHT22;27754;45.414;11.084;2022-07-22T09:41:23;34.90;40.10
42097;DHT22;27754;45.414;11.084;2022-07-22T09:43:50;35.00;40.00
42097;DHT22;27754;45.414;11.084;2022-07-22T09:46:32;35.20;40.60
42097;DHT22;27754;45.414;11.084;2022-07-22T09:49:33;35.50;39.20
42097;DHT22;27754;45.414;11.084;2022-07-22T09:52:21;35.50;39.90
42097;DHT22;27754;45.414;11.084;2022-07-22T09:55:05;35.70;37.80
42097;DHT22;27754;45.414;11.084;2022-07-22T09:57:36;35.70;37.30
42097;DHT22;27754;45.414;11.084;2022-07-22T10:00:04;35.80;37.60
42097;DHT22;27754;45.414;11.084;2022-07-22T10:02:46;35.80;37.50
42097;DHT22;27754;45.414;11.084;2022-07-22T10:05:16;36.00;35.50
42097;DHT22;27754;45.414;11.084;2022-07-22T10:07:45;35.80;35.90
42097;DHT22;27754;45.414;11.084;2022-07-22T10:10:13;35.90;35.50
42097;DHT22;27754;45.414;11.084;2022-07-22T10:12:42;35.80;32.50
42097;DHT22;27754;45.414;11.084;2022-07-22T10:15:09;35.60;34.50
42097;DHT22;27754;45.414;11.084;2022-07-22T10:17:37;35.80;34.40
42097;DHT22;27754;45.414;11.084;2022-07-22T10:20:05;35.80;35.40
42097;DHT22;27754;45.414;11.084;2022-07-22T10:25:06;35.80;33.00
42097;DHT22;27754;45.414;11.084;2022-07-22T10:30:20;35.60;32.70
42097;DHT22;27754;45.414;11.084;2022-07-22T10:35:30;35.90;32.90
42097;DHT22;27754;45.414;11.084;2022-07-22T10:38:03;36.20;32.80
42097;DHT22;27754;45.414;11.084;2022-07-22T10:40:51;36.20;32.70
42097;DHT22;27754;45.414;11.084;2022-07-22T10:43:18;36.30;31.70
42097;DHT22;27754;45.414;11.084;2022-07-22T10:45:46;36.20;32.50
42097;DHT22;27754;45.414;11.084;2022-07-22T10:48:14;36.20;32.00
42097;DHT22;27754;45.414;11.084;2022-07-22T10:50:42;36.30;32.00
42097;DHT22;27754;45.414;11.084;2022-07-22T10:53:11;36.30;32.10
42097;DHT22;27754;45.414;11.084;2022-07-22T10:55:57;36.30;31.50
42097;DHT22;27754;45.414;11.084;2022-07-22T11:01:05;36.50;32.50
42097;DHT22;27754;45.414;11.084;2022-07-22T11:03:33;36.50;33.00
42097;DHT22;27754;45.414;11.084;2022-07-22T11:06:20;36.60;33.60
42097;DHT22;27754;45.414;11.084;2022-07-22T11:08:50;36.50;34.00
42097;DHT22;27754;45.414;11.084;2022-07-22T11:11:17;36.30;34.10
42097;DHT22;27754;45.414;11.084;2022-07-22T11:13:45;36.20;34.50
42097;DHT22;27754;45.414;11.084;2022-07-22T11:16:22;36.30;34.60
42097;DHT22;27754;45.414;11.084;2022-07-22T11:18:54;36.30;33.80
42097;DHT22;27754;45.414;11.084;2022-07-22T11:21:22;36.50;32.80
42097;DHT22;27754;45.414;11.084;2022-07-22T11:23:51;36.40;33.60
42097;DHT22;27754;45.414;11.084;2022-07-22T11:26:19;36.40;33.00
42097;DHT22;27754;45.414;11.084;2022-07-22T11:28:46;36.40;34.10
42097;DHT22;27754;45.414;11.084;2022-07-22T11:31:14;36.40;33.90
42097;DHT22;27754;45.414;11.084;2022-07-22T11:33:42;36.30;33.70
42097;DHT22;27754;45.414;11.084;2022-07-22T11:36:09;36.30;32.80
42097;DHT22;27754;45.414;11.084;2022-07-22T11:38:39;36.30;32.90
42097;DHT22;27754;45.414;11.084;2022-07-22T11:41:06;36.30;32.10
42097;DHT22;27754;45.414;11.084;2022-07-22T11:43:40;36.10;31.80
42097;DHT22;27754;45.414;11.084;2022-07-22T11:46:07;36.40;33.30
42097;DHT22;27754;45.414;11.084;2022-07-22T11:48:34;36.60;32.40
42097;DHT22;27754;45.414;11.084;2022-07-22T11:51:01;36.60;31.60
42097;DHT22;27754;45.414;11.084;2022-07-22T11:53:28;36.20;32.80
42097;DHT22;27754;45.414;11.084;2022-07-22T11:55:59;36.10;32.30
42097;DHT22;27754;45.414;11.084;2022-07-22T11:58:42;36.30;31.80
42097;DHT22;27754;45.414;11.084;2022-07-22T12:01:13;36.20;32.90
42097;DHT22;27754;45.414;11.084;2022-07-22T12:03:44;36.50;32.20
42097;DHT22;27754;45.414;11.084;2022-07-22T12:06:11;36.70;31.90
42097;DHT22;27754;45.414;11.084;2022-07-22T12:08:40;36.50;30.80
42097;DHT22;27754;45.414;11.084;2022-07-22T12:11:09;36.40;31.60
42097;DHT22;27754;45.414;11.084;2022-07-22T12:13:37;36.70;32.50
42097;DHT22;27754;45.414;11.084;2022-07-22T12:16:20;36.90;32.90
42097;DHT22;27754;45.414;11.084;2022-07-22T12:18:51;36.70;31.30
42097;DHT22;27754;45.414;11.084;2022-07-22T12:21:19;36.50;31.60
42097;DHT22;27754;45.414;11.084;2022-07-22T12:23:52;36.50;32.10
42097;DHT22;27754;45.414;11.084;2022-07-22T12:26:29;36.70;32.00
42097;DHT22;27754;45.414;11.084;2022-07-22T12:29:14;36.70;31.40
42097;DHT22;27754;45.414;11.084;2022-07-22T12:31:47;36.50;31.90
42097;DHT22;27754;45.414;11.084;2022-07-22T12:34:14;36.70;31.70
42097;DHT22;27754;45.414;11.084;2022-07-22T12:36:44;36.60;31.90
42097;DHT22;27754;45.414;11.084;2022-07-22T12:39:12;36.80;30.90
42097;DHT22;27754;45.414;11.084;2022-07-22T12:41:46;36.80;31.20
42097;DHT22;27754;45.414;11.084;2022-07-22T12:44:17;36.90;31.50
42097;DHT22;27754;45.414;11.084;2022-07-22T12:46:45;36.80;31.90
42097;DHT22;27754;45.414;11.084;2022-07-22T12:49:14;36.90;32.00
42097;DHT22;27754;45.414;11.084;2022-07-22T12:52:03;36.90;33.00
42097;DHT22;27754;45.414;11.084;2022-07-22T12:54:29;36.90;32.20
42097;DHT22;27754;45.414;11.084;2022-07-22T12:56:56;37.10;31.60
42097;DHT22;27754;45.414;11.084;2022-07-22T12:59:24;37.20;31.40
42097;DHT22;27754;45.414;11.084;2022-07-22T13:01:51;36.80;31.60
42097;DHT22;27754;45.414;11.084;2022-07-22T13:04:18;36.80;31.80
42097;DHT22;27754;45.414;11.084;2022-07-22T13:06:45;36.80;31.80
42097;DHT22;27754;45.414;11.084;2022-07-22T13:09:12;36.60;31.20
42097;DHT22;27754;45.414;11.084;2022-07-22T13:11:44;36.30;31.70
42097;DHT22;27754;45.414;11.084;2022-07-22T13:14:13;36.60;31.50
42097;DHT22;27754;45.414;11.084;2022-07-22T13:16:40;36.60;32.70
42097;DHT22;27754;45.414;11.084;2022-07-22T13:19:07;36.80;32.30
42097;DHT22;27754;45.414;11.084;2022-07-22T13:21:34;37.10;31.60
42097;DHT22;27754;45.414;11.084;2022-07-22T13:24:01;37.30;31.80
42097;DHT22;27754;45.414;11.084;2022-07-22T13:26:28;37.50;31.20
42097;DHT22;27754;45.414;11.084;2022-07-22T13:28:55;37.60;31.00
42097;DHT22;27754;45.414;11.084;2022-07-22T13:31:22;37.30;30.90
42097;DHT22;27754;45.414;11.084;2022-07-22T13:33:49;37.00;31.70
42097;DHT22;27754;45.414;11.084;2022-07-22T13:36:16;37.10;31.70
42097;DHT22;27754;45.414;11.084;2022-07-22T13:38:43;37.20;31.70
42097;DHT22;27754;45.414;11.084;2022-07-22T13:41:10;37.30;32.10
42097;DHT22;27754;45.414;11.084;2022-07-22T13:43:43;37.40;31.60
42097;DHT22;27754;45.414;11.084;2022-07-22T13:46:11;37.30;31.20
42097;DHT22;27754;45.414;11.084;2022-07-22T13:48:39;37.30;31.80
42097;DHT22;27754;45.414;11.084;2022-07-22T13:51:06;37.50;31.80
42097;DHT22;27754;45.414;11.084;2022-07-22T13:53:34;37.30;32.20
42097;DHT22;27754;45.414;11.084;2022-07-22T13:56:00;37.40;31.90
42097;DHT22;27754;45.414;11.084;2022-07-22T13:58:28;37.10;32.60
42097;DHT22;27754;45.414;11.084;2022-07-22T14:00:55;37.00;32.90
42097;DHT22;27754;45.414;11.084;2022-07-22T14:03:22;37.00;32.90
42097;DHT22;27754;45.414;11.084;2022-07-22T14:05:49;37.20;32.30
42097;DHT22;27754;45.414;11.084;2022-07-22T14:08:15;37.50;31.60
42097;DHT22;27754;45.414;11.084;2022-07-22T14:10:42;37.50;31.70
42097;DHT22;27754;45.414;11.084;2022-07-22T14:13:09;37.20;32.30
42097;DHT22;27754;45.414;11.084;2022-07-22T14:15:37;37.50;32.60
42097;DHT22;27754;45.414;11.084;2022-07-22T14:18:04;37.50;33.40
42097;DHT22;27754;45.414;11.084;2022-07-22T14:20:34;37.60;32.80
42097;DHT22;27754;45.414;11.084;2022-07-22T14:23:03;37.50;33.10
42097;DHT22;27754;45.414;11.084;2022-07-22T14:25:32;37.30;32.70
42097;DHT22;27754;45.414;11.084;2022-07-22T14:27:58;37.30;33.00
42097;DHT22;27754;45.414;11.084;2022-07-22T14:30:45;37.10;32.80
42097;DHT22;27754;45.414;11.084;2022-07-22T14:33:12;37.00;33.10
42097;DHT22;27754;45.414;11.084;2022-07-22T14:35:39;37.10;33.20
42097;DHT22;27754;45.414;11.084;2022-07-22T14:38:06;37.30;33.40
42097;DHT22;27754;45.414;11.084;2022-07-22T14:40:33;37.50;32.70
42097;DHT22;27754;45.414;11.084;2022-07-22T14:43:00;37.60;32.40
42097;DHT22;27754;45.414;11.084;2022-07-22T14:45:47;37.80;32.60
42097;DHT22;27754;45.414;11.084;2022-07-22T14:48:13;37.50;32.40
42097;DHT22;27754;45.414;11.084;2022-07-22T14:50:41;37.50;32.10
42097;DHT22;27754;45.414;11.084;2022-07-22T14:53:09;37.40;33.60
42097;DHT22;27754;45.414;11.084;2022-07-22T14:55:36;37.50;33.00
42097;DHT22;27754;45.414;11.084;2022-07-22T14:58:03;37.50;33.60
42097;DHT22;27754;45.414;11.084;2022-07-22T15:00:29;37.80;32.60
42097;DHT22;27754;45.414;11.084;2022-07-22T15:02:56;37.60;32.50
42097;DHT22;27754;45.414;11.084;2022-07-22T15:05:23;37.60;32.80
42097;DHT22;27754;45.414;11.084;2022-07-22T15:07:50;37.60;33.40
42097;DHT22;27754;45.414;11.084;2022-07-22T15:10:17;37.70;33.20
42097;DHT22;27754;45.414;11.084;2022-07-22T15:12:44;37.70;33.00
42097;DHT22;27754;45.414;11.084;2022-07-22T15:15:14;37.50;33.10
42097;DHT22;27754;45.414;11.084;2022-07-22T15:17:41;37.40;33.50
42097;DHT22;27754;45.414;11.084;2022-07-22T15:20:10;37.40;33.30
42097;DHT22;27754;45.414;11.084;2022-07-22T15:22:37;37.30;33.20
42097;DHT22;27754;45.414;11.084;2022-07-22T15:25:04;37.50;33.70
42097;DHT22;27754;45.414;11.084;2022-07-22T15:27:30;37.70;33.20
42097;DHT22;27754;45.414;11.084;2022-07-22T15:29:58;37.80;33.40
42097;DHT22;27754;45.414;11.084;2022-07-22T15:32:25;37.50;33.40
42097;DHT22;27754;45.414;11.084;2022-07-22T15:34:53;37.60;34.20
42097;DHT22;27754;45.414;11.084;2022-07-22T15:37:19;37.50;33.70
42097;DHT22;27754;45.414;11.084;2022-07-22T15:39:47;37.30;34.60
42097;DHT22;27754;45.414;11.084;2022-07-22T15:42:14;37.20;34.20
42097;DHT22;27754;45.414;11.084;2022-07-22T15:44:42;37.30;34.10
42097;DHT22;27754;45.414;11.084;2022-07-22T15:47:09;37.20;34.20